sensor_id;sensor_type;location;lat;lon;timestamp;temperature;humidity
49148;DHT22;41980;45.550;12.070;2022-11-21T00:01:56;7.90;79.10
49148;DHT22;41980;45.550;12.070;2022-11-21T00:08:03;8.00;79.10
49148;DHT22;41980;45.550;12.070;2022-11-21T00:14:09;8.20;78.90
49148;DHT22;41980;45.550;12.070;2022-11-21T00:20:13;8.20;78.80
49148;DHT22;41980;45.550;12.070;2022-11-21T00:26:16;8.10;78.80
49148;DHT22;41980;45.550;12.070;2022-11-21T00:32:25;8.10;79.00
49148;DHT22;41980;45.550;12.070;2022-11-21T00:38:36;8.00;79.00
49148;DHT22;41980;45.550;12.070;2022-11-21T00:44:39;8.00;78.80
49148;DHT22;41980;45.550;12.070;2022-11-21T00:50:47;7.90;78.80
49148;DHT22;41980;45.550;12.070;2022-11-21T00:56:54;7.80;78.80
49148;DHT22;41980;45.550;12.070;2022-11-21T01:02:57;7.80;78.70
49148;DHT22;41980;45.550;12.070;2022-11-21T01:09:08;7.70;79.10
49148;DHT22;41980;45.550;12.070;2022-11-21T01:15:11;7.70;78.50
49148;DHT22;41980;45.550;12.070;2022-11-21T01:21:17;7.80;78.80
49148;DHT22;41980;45.550;12.070;2022-11-21T01:27:28;7.90;78.70
49148;DHT22;41980;45.550;12.070;2022-11-21T01:33:39;7.90;78.70
49148;DHT22;41980;45.550;12.070;2022-11-21T01:39:51;8.00;78.90
49148;DHT22;41980;45.550;12.070;2022-11-21T01:46:03;8.00;78.80
49148;DHT22;41980;45.550;12.070;2022-11-21T01:52:25;8.20;78.80
49148;DHT22;41980;45.550;12.070;2022-11-21T01:58:42;8.20;78.60
49148;DHT22;41980;45.550;12.070;2022-11-21T02:04:50;8.20;78.70
49148;DHT22;41980;45.550;12.070;2022-11-21T02:17:16;8.20;78.70
49148;DHT22;41980;45.550;12.070;2022-11-21T02:29:42;8.10;78.60
49148;DHT22;41980;45.550;12.070;2022-11-21T02:35:56;8.00;78.70
49148;DHT22;41980;45.550;12.070;2022-11-21T02:42:18;7.80;79.10
49148;DHT22;41980;45.550;12.070;2022-11-21T02:48:26;7.60;79.40
49148;DHT22;41980;45.550;12.070;2022-11-21T02:54:31;7.50;79.60
49148;DHT22;41980;45.550;12.070;2022-11-21T03:00:53;7.60;79.70
49148;DHT22;41980;45.550;12.070;2022-11-21T03:07:36;7.60;79.60
49148;DHT22;41980;45.550;12.070;2022-11-21T03:13:54;7.60;79.50
49148;DHT22;41980;45.550;12.070;2022-11-21T03:20:19;7.50;79.50
49148;DHT22;41980;45.550;12.070;2022-11-21T03:26:33;7.30;79.70
49148;DHT22;41980;45.550;12.070;2022-11-21T03:32:44;7.30;79.90
49148;DHT22;41980;45.550;12.070;2022-11-21T03:38:57;7.10;79.90
49148;DHT22;41980;45.550;12.070;2022-11-21T03:45:13;7.00;80.00
49148;DHT22;41980;45.550;12.070;2022-11-21T03:51:43;6.90;80.20
49148;DHT22;41980;45.550;12.070;2022-11-21T03:57:45;6.80;80.30
49148;DHT22;41980;45.550;12.070;2022-11-21T04:03:55;6.80;80.30
49148;DHT22;41980;45.550;12.070;2022-11-21T04:10:17;6.70;80.40
49148;DHT22;41980;45.550;12.070;2022-11-21T04:16:45;6.60;80.40
49148;DHT22;41980;45.550;12.070;2022-11-21T04:23:02;6.50;80.70
49148;DHT22;41980;45.550;12.070;2022-11-21T04:29:59;6.50;80.70
49148;DHT22;41980;45.550;12.070;2022-11-21T04:36:04;6.40;80.80
49148;DHT22;41980;45.550;12.070;2022-11-21T04:42:07;6.40;80.90
49148;DHT22;41980;45.550;12.070;2022-11-21T04:48:10;6.30;81.00
49148;DHT22;41980;45.550;12.070;2022-11-21T04:54:13;6.30;80.90
49148;DHT22;41980;45.550;12.070;2022-11-21T05:00:24;6.30;80.90
49148;DHT22;41980;45.550;12.070;2022-11-21T05:06:46;6.30;80.90
49148;DHT22;41980;45.550;12.070;2022-11-21T05:12:56;6.20;81.10
49148;DHT22;41980;45.550;12.070;2022-11-21T05:19:02;6.20;81.20
49148;DHT22;41980;45.550;12.070;2022-11-21T05:25:05;6.20;81.20
49148;DHT22;41980;45.550;12.070;2022-11-21T05:31:10;6.20;81.00
49148;DHT22;41980;45.550;12.070;2022-11-21T05:37:22;6.20;81.20
49148;DHT22;41980;45.550;12.070;2022-11-21T05:43:30;6.10;81.30
49148;DHT22;41980;45.550;12.070;2022-11-21T05:49:46;6.10;81.40
49148;DHT22;41980;45.550;12.070;2022-11-21T05:55:52;6.00;81.60
49148;DHT22;41980;45.550;12.070;2022-11-21T06:02:10;6.00;81.60
49148;DHT22;41980;45.550;12.070;2022-11-21T06:08:21;5.90;81.70
49148;DHT22;41980;45.550;12.070;2022-11-21T06:14:37;6.00;81.60
49148;DHT22;41980;45.550;12.070;2022-11-21T06:20:40;6.00;81.50
49148;DHT22;41980;45.550;12.070;2022-11-21T06:26:47;6.00;81.50
49148;DHT22;41980;45.550;12.070;2022-11-21T06:32:52;6.00;81.60
49148;DHT22;41980;45.550;12.070;2022-11-21T06:38:57;6.00;81.60
49148;DHT22;41980;45.550;12.070;2022-11-21T06:45:05;6.00;81.50
49148;DHT22;41980;45.550;12.070;2022-11-21T06:51:20;6.00;81.60
49148;DHT22;41980;45.550;12.070;2022-11-21T06:57:29;6.10;81.60
49148;DHT22;41980;45.550;12.070;2022-11-21T07:03:31;6.10;81.60
49148;DHT22;41980;45.550;12.070;2022-11-21T07:09:34;6.20;81.60
49148;DHT22;41980;45.550;12.070;2022-11-21T07:15:36;6.30;81.40
49148;DHT22;41980;45.550;12.070;2022-11-21T07:21:45;6.50;81.80
49148;DHT22;41980;45.550;12.070;2022-11-21T07:27:50;6.70;81.10
49148;DHT22;41980;45.550;12.070;2022-11-21T07:33:52;6.80;80.90
49148;DHT22;41980;45.550;12.070;2022-11-21T07:39:54;6.90;80.90
49148;DHT22;41980;45.550;12.070;2022-11-21T07:45:56;7.10;80.80
49148;DHT22;41980;45.550;12.070;2022-11-21T07:51:58;7.30;80.60
49148;DHT22;41980;45.550;12.070;2022-11-21T07:58:03;7.40;80.80
49148;DHT22;41980;45.550;12.070;2022-11-21T08:04:06;7.50;80.40
49148;DHT22;41980;45.550;12.070;2022-11-21T08:10:08;7.50;80.40
49148;DHT22;41980;45.550;12.070;2022-11-21T08:16:10;7.60;80.10
49148;DHT22;41980;45.550;12.070;2022-11-21T08:22:12;7.80;79.90
49148;DHT22;41980;45.550;12.070;2022-11-21T08:28:14;7.90;79.70
49148;DHT22;41980;45.550;12.070;2022-11-21T08:34:16;8.00;79.60
49148;DHT22;41980;45.550;12.070;2022-11-21T08:40:18;8.10;79.40
49148;DHT22;41980;45.550;12.070;2022-11-21T08:46:20;8.30;79.20
49148;DHT22;41980;45.550;12.070;2022-11-21T08:52:23;8.50;79.20
49148;DHT22;41980;45.550;12.070;2022-11-21T08:58:25;8.60;79.20
49148;DHT22;41980;45.550;12.070;2022-11-21T09:04:27;8.90;79.00
49148;DHT22;41980;45.550;12.070;2022-11-21T09:10:29;9.10;78.60
49148;DHT22;41980;45.550;12.070;2022-11-21T09:16:31;9.30;78.10
49148;DHT22;41980;45.550;12.070;2022-11-21T09:22:36;9.40;78.40
49148;DHT22;41980;45.550;12.070;2022-11-21T09:28:39;9.50;78.30
49148;DHT22;41980;45.550;12.070;2022-11-21T09:34:42;9.60;78.10
49148;DHT22;41980;45.550;12.070;2022-11-21T09:40:46;9.70;78.10
49148;DHT22;41980;45.550;12.070;2022-11-21T09:46:49;9.80;77.00
49148;DHT22;41980;45.550;12.070;2022-11-21T09:52:57;9.80;76.80
49148;DHT22;41980;45.550;12.070;2022-11-21T10:05:10;10.00;77.90
49148;DHT22;41980;45.550;12.070;2022-11-21T10:23:28;10.10;77.20
49148;DHT22;41980;45.550;12.070;2022-11-21T10:29:37;10.20;75.70
49148;DHT22;41980;45.550;12.070;2022-11-21T10:35:40;10.40;76.80
49148;DHT22;41980;45.550;12.070;2022-11-21T10:47:47;10.80;75.00
49148;DHT22;41980;45.550;12.070;2022-11-21T11:00:01;11.20;73.40
49148;DHT22;41980;45.550;12.070;2022-11-21T11:06:03;11.30;74.60
49148;DHT22;41980;45.550;12.070;2022-11-21T11:18:11;11.50;75.10
49148;DHT22;41980;45.550;12.070;2022-11-21T11:30:17;11.40;70.10
49148;DHT22;41980;45.550;12.070;2022-11-21T11:48:28;11.30;74.10
49148;DHT22;41980;45.550;12.070;2022-11-21T11:54:34;11.30;74.50
49148;DHT22;41980;45.550;12.070;2022-11-21T12:00:44;11.10;73.80
49148;DHT22;41980;45.550;12.070;2022-11-21T12:13:01;11.10;73.70
49148;DHT22;41980;45.550;12.070;2022-11-21T12:19:09;11.10;70.60
49148;DHT22;41980;45.550;12.070;2022-11-21T12:25:14;11.10;73.00
49148;DHT22;41980;45.550;12.070;2022-11-21T12:31:20;11.10;74.70
49148;DHT22;41980;45.550;12.070;2022-11-21T12:55:41;11.00;74.30
49148;DHT22;41980;45.550;12.070;2022-11-21T13:07:48;11.20;73.90
49148;DHT22;41980;45.550;12.070;2022-11-21T13:13:55;11.20;72.90
49148;DHT22;41980;45.550;12.070;2022-11-21T13:20:03;11.20;73.50
49148;DHT22;41980;45.550;12.070;2022-11-21T13:38:17;10.80;73.80
49148;DHT22;41980;45.550;12.070;2022-11-21T13:50:30;10.90;74.30
49148;DHT22;41980;45.550;12.070;2022-11-21T14:08:43;11.10;73.50
49148;DHT22;41980;45.550;12.070;2022-11-21T14:21:15;11.30;74.20
49148;DHT22;41980;45.550;12.070;2022-11-21T14:27:37;11.40;73.80
49148;DHT22;41980;45.550;12.070;2022-11-21T14:33:46;11.40;74.10
49148;DHT22;41980;45.550;12.070;2022-11-21T14:39:52;11.30;74.10
49148;DHT22;41980;45.550;12.070;2022-11-21T14:45:53;11.30;74.10
49148;DHT22;41980;45.550;12.070;2022-11-21T14:58:03;11.10;74.10
49148;DHT22;41980;45.550;12.070;2022-11-21T15:04:07;10.90;74.10
49148;DHT22;41980;45.550;12.070;2022-11-21T15:10:31;10.80;74.70
49148;DHT22;41980;45.550;12.070;2022-11-21T15:16:34;10.50;75.10
49148;DHT22;41980;45.550;12.070;2022-11-21T15:22:36;10.30;75.30
49148;DHT22;41980;45.550;12.070;2022-11-21T15:28:52;10.10;75.60
49148;DHT22;41980;45.550;12.070;2022-11-21T15:35:25;10.00;75.80
49148;DHT22;41980;45.550;12.070;2022-11-21T15:41:24;9.80;76.10
49148;DHT22;41980;45.550;12.070;2022-11-21T15:47:26;9.60;76.40
49148;DHT22;41980;45.550;12.070;2022-11-21T15:53:28;9.50;76.60
49148;DHT22;41980;45.550;12.070;2022-11-21T15:59:29;9.50;76.80
49148;DHT22;41980;45.550;12.070;2022-11-21T16:05:31;9.40;76.80
49148;DHT22;41980;45.550;12.070;2022-11-21T16:11:34;9.30;76.80
49148;DHT22;41980;45.550;12.070;2022-11-21T16:17:38;9.20;76.90
49148;DHT22;41980;45.550;12.070;2022-11-21T16:23:41;9.10;77.50
49148;DHT22;41980;45.550;12.070;2022-11-21T16:29:43;9.00;77.30
49148;DHT22;41980;45.550;12.070;2022-11-21T16:35:44;9.10;77.50
49148;DHT22;41980;45.550;12.070;2022-11-21T16:41:46;9.10;77.90
49148;DHT22;41980;45.550;12.070;2022-11-21T16:47:49;9.10;78.10
49148;DHT22;41980;45.550;12.070;2022-11-21T16:53:51;9.10;77.70
49148;DHT22;41980;45.550;12.070;2022-11-21T16:59:53;9.10;77.70
49148;DHT22;41980;45.550;12.070;2022-11-21T17:05:57;9.20;78.40
49148;DHT22;41980;45.550;12.070;2022-11-21T17:12:00;9.20;78.00
49148;DHT22;41980;45.550;12.070;2022-11-21T17:18:02;9.10;78.00
49148;DHT22;41980;45.550;12.070;2022-11-21T17:24:04;9.10;77.60
49148;DHT22;41980;45.550;12.070;2022-11-21T17:30:07;9.10;78.00
49148;DHT22;41980;45.550;12.070;2022-11-21T17:36:29;9.00;78.40
49148;DHT22;41980;45.550;12.070;2022-11-21T17:42:31;8.80;77.90
49148;DHT22;41980;45.550;12.070;2022-11-21T17:48:33;8.80;78.40
49148;DHT22;41980;45.550;12.070;2022-11-21T17:54:35;8.80;78.50
49148;DHT22;41980;45.550;12.070;2022-11-21T18:00:37;8.70;78.30
49148;DHT22;41980;45.550;12.070;2022-11-21T18:06:42;8.70;78.20
49148;DHT22;41980;45.550;12.070;2022-11-21T18:12:44;8.60;78.30
49148;DHT22;41980;45.550;12.070;2022-11-21T18:18:46;8.60;78.70
49148;DHT22;41980;45.550;12.070;2022-11-21T18:24:48;8.50;78.60
49148;DHT22;41980;45.550;12.070;2022-11-21T18:30:50;8.50;78.40
49148;DHT22;41980;45.550;12.070;2022-11-21T18:36:55;8.50;78.90
49148;DHT22;41980;45.550;12.070;2022-11-21T18:42:58;8.40;78.60
49148;DHT22;41980;45.550;12.070;2022-11-21T18:49:00;8.30;78.90
49148;DHT22;41980;45.550;12.070;2022-11-21T18:55:02;8.40;79.10
49148;DHT22;41980;45.550;12.070;2022-11-21T19:01:05;8.50;79.40
49148;DHT22;41980;45.550;12.070;2022-11-21T19:07:10;8.50;79.40
49148;DHT22;41980;45.550;12.070;2022-11-21T19:13:12;8.50;79.30
49148;DHT22;41980;45.550;12.070;2022-11-21T19:19:14;8.50;79.20
49148;DHT22;41980;45.550;12.070;2022-11-21T19:25:17;8.40;79.00
49148;DHT22;41980;45.550;12.070;2022-11-21T19:31:19;8.50;78.90
49148;DHT22;41980;45.550;12.070;2022-11-21T19:37:26;8.60;78.80
49148;DHT22;41980;45.550;12.070;2022-11-21T19:43:30;8.70;78.60
49148;DHT22;41980;45.550;12.070;2022-11-21T19:49:31;8.70;78.40
49148;DHT22;41980;45.550;12.070;2022-11-21T19:55:33;8.80;78.40
49148;DHT22;41980;45.550;12.070;2022-11-21T20:01:36;8.90;78.40
49148;DHT22;41980;45.550;12.070;2022-11-21T20:07:40;8.90;78.30
49148;DHT22;41980;45.550;12.070;2022-11-21T20:13:46;9.00;78.10
49148;DHT22;41980;45.550;12.070;2022-11-21T20:19:49;8.90;78.20
49148;DHT22;41980;45.550;12.070;2022-11-21T20:25:52;8.90;78.30
49148;DHT22;41980;45.550;12.070;2022-11-21T20:32:19;8.90;78.30
49148;DHT22;41980;45.550;12.070;2022-11-21T20:38:21;8.90;78.40
49148;DHT22;41980;45.550;12.070;2022-11-21T20:44:23;9.00;78.20
49148;DHT22;41980;45.550;12.070;2022-11-21T20:50:28;9.00;78.20
49148;DHT22;41980;45.550;12.070;2022-11-21T20:56:31;9.10;78.10
49148;DHT22;41980;45.550;12.070;2022-11-21T21:02:33;9.00;77.90
49148;DHT22;41980;45.550;12.070;2022-11-21T21:08:38;9.10;77.80
49148;DHT22;41980;45.550;12.070;2022-11-21T21:14:39;9.10;77.20
49148;DHT22;41980;45.550;12.070;2022-11-21T21:20:45;9.20;77.40
49148;DHT22;41980;45.550;12.070;2022-11-21T21:26:47;9.20;77.30
49148;DHT22;41980;45.550;12.070;2022-11-21T21:32:49;9.20;76.90
49148;DHT22;41980;45.550;12.070;2022-11-21T21:38:51;9.20;76.60
49148;DHT22;41980;45.550;12.070;2022-11-21T21:44:54;9.30;77.00
49148;DHT22;41980;45.550;12.070;2022-11-21T21:57:01;9.10;78.20
49148;DHT22;41980;45.550;12.070;2022-11-21T22:03:03;9.00;78.70
49148;DHT22;41980;45.550;12.070;2022-11-21T22:09:05;8.90;78.40
49148;DHT22;41980;45.550;12.070;2022-11-21T22:15:07;8.90;79.00
49148;DHT22;41980;45.550;12.070;2022-11-21T22:27:14;8.80;79.00
49148;DHT22;41980;45.550;12.070;2022-11-21T22:33:15;8.70;79.70
49148;DHT22;41980;45.550;12.070;2022-11-21T22:39:17;8.80;79.70
49148;DHT22;41980;45.550;12.070;2022-11-21T22:45:19;8.70;79.50
49148;DHT22;41980;45.550;12.070;2022-11-21T22:51:23;8.50;80.80
49148;DHT22;41980;45.550;12.070;2022-11-21T22:57:26;8.50;80.80
49148;DHT22;41980;45.550;12.070;2022-11-21T23:03:28;8.50;80.10
49148;DHT22;41980;45.550;12.070;2022-11-21T23:09:31;8.60;80.70
49148;DHT22;41980;45.550;12.070;2022-11-21T23:15:33;8.60;79.90
49148;DHT22;41980;45.550;12.070;2022-11-21T23:21:35;8.70;79.70
49148;DHT22;41980;45.550;12.070;2022-11-21T23:27:36;8.80;79.60
49148;DHT22;41980;45.550;12.070;2022-11-21T23:33:38;8.80;79.50
49148;DHT22;41980;45.550;12.070;2022-11-21T23:39:40;8.90;79.50
49148;DHT22;41980;45.550;12.070;2022-11-21T23:45:41;8.90;79.80
49148;DHT22;41980;45.550;12.070;2022-11-21T23:51:44;8.80;79.90
49148;DHT22;41980;45.550;12.070;2022-11-21T23:57:46;8.80;79.80
